Keizer, Oregon
Current Conditions -  °F | °C
As of 10:56 PM on Wednesday 22 Oct 2014 (Local Time) from KSLE Reporting Station
Light Rain Light Rain  
Wind Chill: 55°   Ceiling: 3700
Heat Index: 55°   Visibility: 9mi
Dew Point: 50°   Wind: 12mph
Humidity: 83%   Direction: 210°SSW
Pressure: 29.77"   Gusts: NA
Location:  45°N, 123.02°W
Report Text: KSLE 230556Z AUTO 21010KT 9SM -RA BKN037 OVC047 13/10 A2977 RMK AO2 RAE25B49 SLP081 P0002 60029 T01280100 10144 20128 50016
Loading
Personal Weather Stations






























Interactive Weather Map
Tropical Storm Tracking
New forecast layout! Learn more

10-Day Weather Forecast

Advertisements
Track Severe Weather on mobile